Time;durP1;ratioP1;P1;durP2;ratioP2;P2;SDS_P1;SDS_P2;PMS_P1;PMS_P2;Temp;Humidity;BMP_temperature;BMP_pressure;BME280_temperature;BME280_humidity;BME280_pressure;Samples;Min_cycle;Max_cycle;Signal;HPM_P1;HPM_P2
2023/01/01 00:00:37;;;;;;;400.60;214.77;;;;;;;4.59;87.49;96257.63;4992739;28;20185;-75
2023/01/01 00:03:03;;;;;;;409.00;209.70;;;;;;;4.31;88.02;96226.25;4992763;28;20212;-75
2023/01/01 00:05:28;;;;;;;421.90;219.03;;;;;;;4.58;88.35;96256.03;4992494;28;20212;-76
2023/01/01 00:07:53;;;;;;;423.53;229.67;;;;;;;4.61;88.83;96260.94;4992387;28;20192;-76
2023/01/01 00:10:27;;;;;;;417.23;215.17;;;;;;;4.65;89.05;96257.94;4992211;28;20204;-78
2023/01/01 00:12:54;;;;;;;400.07;191.53;;;;;;;4.68;89.12;96264.63;4992397;28;20188;-77
2023/01/01 00:15:19;;;;;;;398.43;192.30;;;;;;;4.59;89.63;96255.03;4992516;28;20609;-77
2023/01/01 00:17:44;;;;;;;429.17;221.93;;;;;;;4.68;89.64;96262.84;4992218;28;20196;-76
2023/01/01 00:20:10;;;;;;;430.50;223.63;;;;;;;4.66;89.06;96269.19;4992015;28;20177;-75
2023/01/01 00:22:36;;;;;;;409.80;211.73;;;;;;;4.56;89.08;96248.31;4991862;28;20319;-76
2023/01/01 00:25:01;;;;;;;406.50;206.07;;;;;;;4.69;89.12;96268.88;4991935;28;20280;-74
2023/01/01 00:27:27;;;;;;;424.10;223.37;;;;;;;4.65;88.46;96252.72;4991769;28;20328;-75
2023/01/01 00:29:52;;;;;;;372.97;190.63;;;;;;;4.67;87.78;96266.41;4991774;28;20216;-75
2023/01/01 00:32:17;;;;;;;318.13;151.60;;;;;;;4.60;87.54;96278.38;4992152;28;20177;-75
2023/01/01 00:34:43;;;;;;;299.63;146.80;;;;;;;4.43;87.90;96273.84;4991799;28;20272;-75
2023/01/01 00:37:08;;;;;;;263.00;128.93;;;;;;;4.47;87.50;96277.84;4991706;28;20176;-75
2023/01/01 00:39:33;;;;;;;237.60;117.33;;;;;;;4.35;88.16;96258.06;4991657;28;20691;-75
2023/01/01 00:41:59;;;;;;;243.27;121.63;;;;;;;4.42;88.22;96277.41;4991743;28;20181;-75
2023/01/01 00:44:24;;;;;;;219.10;107.07;;;;;;;4.40;87.69;96280.19;4990287;28;20549;-75
2023/01/01 00:46:50;;;;;;;215.43;103.27;;;;;;;4.33;87.28;96284.28;4991809;28;20185;-75
2023/01/01 00:49:15;;;;;;;202.43;95.83;;;;;;;4.22;87.68;96281.81;4991549;28;20632;-75
2023/01/01 00:51:40;;;;;;;192.33;97.00;;;;;;;4.07;88.45;96276.16;4991500;28;20184;-75
2023/01/01 00:54:06;;;;;;;203.67;98.40;;;;;;;4.08;88.46;96277.00;4991355;28;20243;-75
2023/01/01 00:56:32;;;;;;;208.77;98.80;;;;;;;4.02;88.35;96257.53;4991339;28;20184;-75
2023/01/01 00:58:57;;;;;;;201.90;100.03;;;;;;;4.09;87.83;96257.78;4991379;28;20176;-75
2023/01/01 01:01:23;;;;;;;218.50;101.70;;;;;;;4.24;88.12;96289.50;4991361;28;20617;-75
2023/01/01 01:03:48;;;;;;;212.90;101.07;;;;;;;4.27;88.44;96286.59;4991290;28;20177;-75
2023/01/01 01:06:16;;;;;;;247.50;112.17;;;;;;;4.28;88.55;96277.84;4991088;28;20185;-75
2023/01/01 01:08:45;;;;;;;219.93;103.67;;;;;;;4.06;88.39;96238.06;4995668;28;20230;-75
2023/01/01 01:11:17;;;;;;;211.13;100.33;;;;;;;4.21;88.10;96280.16;5010787;28;20183;-75
2023/01/01 01:13:44;;;;;;;225.73;100.70;;;;;;;4.12;88.37;96268.78;5010603;28;20184;-75
2023/01/01 01:16:11;;;;;;;221.93;101.60;;;;;;;4.13;87.95;96270.44;5010983;28;20179;-75
2023/01/01 01:18:37;;;;;;;215.17;100.97;;;;;;;4.07;88.04;96275.34;5009223;28;20275;-75
2023/01/01 01:21:03;;;;;;;238.13;109.00;;;;;;;4.03;88.05;96277.41;5010575;28;20255;-75
2023/01/01 01:23:28;;;;;;;227.27;103.27;;;;;;;4.01;88.42;96274.09;5010492;28;20236;-75
2023/01/01 01:25:53;;;;;;;249.60;111.67;;;;;;;4.04;88.37;96262.59;5010564;28;20184;-75
2023/01/01 01:28:19;;;;;;;244.83;111.47;;;;;;;4.09;88.26;96265.59;5010512;28;20209;-76
2023/01/01 01:30:44;;;;;;;227.10;105.70;;;;;;;4.10;87.57;96264.66;5010469;28;20200;-75
2023/01/01 01:33:10;;;;;;;257.17;115.70;;;;;;;4.03;87.80;96264.38;5010491;28;20207;-75
2023/01/01 01:35:35;;;;;;;245.27;112.23;;;;;;;4.03;88.10;96259.16;5010441;28;20255;-75
2023/01/01 01:38:01;;;;;;;233.07;106.13;;;;;;;3.94;88.01;96261.75;5010483;28;20245;-75
2023/01/01 01:40:26;;;;;;;242.47;116.20;;;;;;;3.85;88.34;96267.78;5010465;28;20176;-75
2023/01/01 01:42:52;;;;;;;254.80;117.13;;;;;;;3.86;88.73;96272.03;5010517;28;20639;-75
2023/01/01 01:45:18;;;;;;;233.07;109.47;;;;;;;3.85;88.77;96268.59;5010456;28;20686;-75
2023/01/01 01:47:49;;;;;;;231.00;111.20;;;;;;;3.87;88.44;96266.69;5010509;28;20180;-75
2023/01/01 01:50:37;;;;;;;221.80;107.90;;;;;;;3.85;88.22;96257.34;5009983;28;20609;-75
2023/01/01 01:53:14;;;;;;;227.37;104.30;;;;;;;3.84;88.13;96263.53;5010172;28;20212;-75
2023/01/01 01:55:54;;;;;;;225.50;105.23;;;;;;;3.76;88.45;96261.59;5010070;28;20176;-75
2023/01/01 01:58:20;;;;;;;253.17;113.50;;;;;;;3.75;88.38;96263.38;5010740;28;20176;-75
2023/01/01 02:00:46;;;;;;;243.90;115.97;;;;;;;3.67;88.19;96249.38;5010370;28;20247;-75
2023/01/01 02:03:18;;;;;;;274.40;119.10;;;;;;;3.46;87.88;96230.44;5014210;28;20266;-75
2023/01/01 02:05:45;;;;;;;258.60;116.90;;;;;;;3.66;88.19;96269.38;5014195;28;20215;-75
2023/01/01 02:08:13;;;;;;;292.83;130.73;;;;;;;3.67;88.44;96265.81;5014150;28;20271;-75
2023/01/01 02:10:39;;;;;;;272.20;127.13;;;;;;;3.69;89.22;96269.13;5013909;28;20258;-75
2023/01/01 02:13:04;;;;;;;243.10;113.27;;;;;;;3.76;89.80;96274.63;5014025;28;20200;-75
2023/01/01 02:15:39;;;;;;;227.53;106.27;;;;;;;3.75;91.34;96259.94;5014012;28;20575;-75
2023/01/01 02:18:17;;;;;;;252.57;121.13;;;;;;;3.86;91.65;96277.25;5013975;28;20183;-75
2023/01/01 02:20:57;;;;;;;260.63;126.45;;;;;;;3.80;90.70;96279.41;5013570;28;20449;-75
2023/01/01 02:23:30;;;;;;;223.15;112.57;;;;;;;3.72;90.42;96279.25;5013160;28;20532;-75
2023/01/01 02:25:56;;;;;;;193.03;94.63;;;;;;;3.75;89.96;96278.16;4986103;28;20227;-75
2023/01/01 02:28:42;;;;;;;187.37;95.10;;;;;;;3.73;89.52;96278.28;4993500;28;20448;-75
2023/01/01 02:31:12;;;;;;;161.00;82.50;;;;;;;3.62;90.83;96277.59;4993532;28;20998;-75
2023/01/01 02:33:40;;;;;;;155.53;71.43;;;;;;;3.64;90.83;96275.66;4994068;28;20177;-75
2023/01/01 02:36:07;;;;;;;163.30;72.77;;;;;;;3.69;90.82;96273.50;4994038;28;20192;-75
2023/01/01 02:38:48;;;;;;;164.13;74.73;;;;;;;3.71;90.06;96275.03;4994007;28;20204;-75
2023/01/01 02:41:35;;;;;;;150.83;72.60;;;;;;;3.74;88.82;96274.75;4993793;28;20177;-75
2023/01/01 02:44:02;;;;;;;165.80;74.77;;;;;;;3.71;88.13;96272.44;4993906;28;20176;-75
2023/01/01 02:46:33;;;;;;;163.43;75.67;;;;;;;3.70;87.79;96265.56;4993759;28;20187;-75
2023/01/01 02:48:58;;;;;;;160.73;72.97;;;;;;;3.72;87.91;96276.66;4993953;28;20197;-75
2023/01/01 02:51:33;;;;;;;145.47;71.63;;;;;;;3.63;88.05;96274.84;4993983;28;20188;-75
2023/01/01 02:54:01;;;;;;;151.93;72.03;;;;;;;3.62;88.27;96283.63;4993728;28;20188;-75
2023/01/01 02:56:45;;;;;;;170.03;76.90;;;;;;;3.62;88.84;96269.78;4992278;28;20264;-75
2023/01/01 03:02:07;;;;;;;170.97;75.10;;;;;;;3.65;87.84;96264.31;4994351;28;20208;-75
2023/01/01 03:04:38;;;;;;;155.20;75.80;;;;;;;3.67;87.68;96265.00;4993456;28;20181;-75
2023/01/01 03:07:40;;;;;;;161.83;74.37;;;;;;;3.45;87.80;96231.38;4993615;28;20181;-75
2023/01/01 03:10:20;;;;;;;171.57;82.65;;;;;;;3.54;88.37;96239.22;4980746;28;20448;-75
2023/01/01 03:13:02;;;;;;;199.50;101.80;;;;;;;3.53;90.21;96258.41;4991387;28;20830;-75
2023/01/01 03:15:36;;;;;;;186.47;89.80;;;;;;;3.39;91.28;96261.34;4992305;28;20183;-75
2023/01/01 03:18:08;;;;;;;200.40;83.27;;;;;;;3.27;91.22;96242.44;4993423;28;20212;-75
2023/01/01 03:20:39;;;;;;;180.53;84.77;;;;;;;3.45;90.44;96273.84;4993227;28;20185;-75
2023/01/01 03:23:11;;;;;;;189.60;83.17;;;;;;;3.43;89.30;96286.16;4992989;28;20213;-75
2023/01/01 03:25:44;;;;;;;173.80;79.47;;;;;;;3.40;89.37;96278.63;4991975;28;20223;-75
2023/01/01 03:28:21;;;;;;;179.40;79.70;;;;;;;3.42;90.22;96281.91;4993258;28;20192;-75
2023/01/01 03:30:50;;;;;;;174.23;81.33;;;;;;;3.45;89.54;96276.47;4993037;28;20232;-75
2023/01/01 03:33:21;;;;;;;178.07;82.07;;;;;;;3.48;89.00;96273.56;4993026;28;20268;-75
2023/01/01 03:35:53;;;;;;;183.43;85.37;;;;;;;3.51;88.18;96272.50;4993111;28;20192;-75
2023/01/01 03:38:30;;;;;;;170.73;82.43;;;;;;;3.48;87.82;96278.78;4993314;28;20616;-75
2023/01/01 03:41:04;;;;;;;161.00;73.97;;;;;;;3.47;88.26;96271.09;4992837;28;20169;-75
2023/01/01 03:44:07;;;;;;;166.00;76.27;;;;;;;3.50;88.46;96279.47;4992933;28;20231;-75
2023/01/01 03:46:34;;;;;;;182.27;95.20;;;;;;;3.47;89.52;96271.09;4991364;28;20416;-75
2023/01/01 03:49:03;;;;;;;168.03;79.93;;;;;;;3.50;89.10;96274.28;4992657;28;20296;-75
2023/01/01 03:51:54;;;;;;;151.70;74.27;;;;;;;3.49;88.97;96261.38;4992735;28;20181;-75
2023/01/01 03:54:22;;;;;;;162.87;76.27;;;;;;;3.44;88.39;96263.56;4977839;28;20195;-75
2023/01/01 03:56:59;;;;;;;144.67;70.40;;;;;;;3.40;89.37;96276.84;4992654;28;20181;-75
2023/01/01 03:59:38;;;;;;;151.10;70.23;;;;;;;3.38;89.15;96275.31;4992358;28;20188;-75
2023/01/01 04:02:07;;;;;;;153.50;68.70;;;;;;;3.34;89.66;96279.16;4992561;28;20312;-75
2023/01/01 04:04:34;;;;;;;159.13;68.37;;;;;;;3.31;89.05;96275.00;4992613;28;20240;-75
2023/01/01 04:07:01;;;;;;;137.37;64.40;;;;;;;3.29;88.61;96271.72;4992636;28;20272;-75
2023/01/01 04:09:31;;;;;;;140.70;69.27;;;;;;;3.21;88.39;96265.53;4992393;28;20207;-75
2023/01/01 04:12:01;;;;;;;135.47;65.77;;;;;;;3.25;88.55;96277.31;4992196;28;20193;-75
2023/01/01 04:14:33;;;;;;;129.80;60.67;;;;;;;3.21;87.98;96273.31;4992162;28;20223;-75
2023/01/01 04:17:00;;;;;;;158.03;67.60;;;;;;;3.22;88.20;96280.19;4992219;28;20177;-75
2023/01/01 04:19:26;;;;;;;142.70;65.67;;;;;;;3.23;88.01;96274.03;4990912;28;20627;-75
2023/01/01 04:21:51;;;;;;;145.37;65.33;;;;;;;3.19;88.38;96273.47;4992012;28;20269;-75
2023/01/01 04:24:16;;;;;;;131.13;63.53;;;;;;;3.10;88.33;96266.44;4991732;28;20291;-75
2023/01/01 04:26:42;;;;;;;149.90;69.00;;;;;;;3.16;88.52;96275.50;4991944;28;20196;-75
2023/01/01 04:29:08;;;;;;;144.67;66.47;;;;;;;3.00;89.25;96265.56;4991951;28;20209;-75
2023/01/01 04:31:34;;;;;;;134.97;68.80;;;;;;;3.09;89.19;96270.00;4991822;28;20664;-75
2023/01/01 04:33:59;;;;;;;143.47;66.60;;;;;;;3.13;89.17;96271.38;4992087;28;20201;-75
2023/01/01 04:36:24;;;;;;;161.33;74.63;;;;;;;3.12;89.43;96261.91;4990932;28;20304;-75
2023/01/01 04:38:50;;;;;;;152.20;68.80;;;;;;;3.15;89.11;96272.06;4991910;28;20256;-75
2023/01/01 04:41:15;;;;;;;156.77;70.50;;;;;;;3.11;88.89;96270.72;4991564;28;20670;-75
2023/01/01 04:43:41;;;;;;;149.30;68.03;;;;;;;3.17;88.94;96280.59;4991801;28;20177;-75
2023/01/01 04:46:06;;;;;;;139.93;64.60;;;;;;;3.19;88.39;96280.47;4991576;28;20545;-75
2023/01/01 04:48:34;;;;;;;139.13;62.63;;;;;;;2.94;87.84;96243.50;4991604;28;20577;-75
2023/01/01 04:51:03;;;;;;;140.30;62.53;;;;;;;3.13;88.26;96276.56;4991467;28;20684;-75
2023/01/01 04:53:31;;;;;;;135.00;62.20;;;;;;;3.14;87.83;96275.63;4991438;28;20173;-75
2023/01/01 04:56:11;;;;;;;132.40;61.77;;;;;;;3.13;88.15;96271.38;4991543;28;20188;-75
2023/01/01 04:58:39;;;;;;;140.67;65.37;;;;;;;3.12;88.09;96274.09;4982971;28;20191;-75
2023/01/01 05:01:05;;;;;;;149.07;62.70;;;;;;;3.10;88.30;96281.25;4991426;28;20177;-75
2023/01/01 05:03:31;;;;;;;144.73;66.83;;;;;;;3.07;88.14;96287.50;4991408;28;20192;-75
2023/01/01 05:06:04;;;;;;;154.63;66.40;;;;;;;2.90;87.91;96270.72;4991381;28;20176;-75
2023/01/01 05:08:34;;;;;;;141.70;65.77;;;;;;;3.02;87.83;96293.13;4991315;28;20247;-75
2023/01/01 05:11:06;;;;;;;150.10;67.30;;;;;;;3.03;87.71;96293.91;4991182;28;20209;-75
2023/01/01 05:13:34;;;;;;;170.03;80.83;;;;;;;3.07;88.01;96299.69;4991489;28;20688;-75
2023/01/01 05:16:03;;;;;;;189.00;84.10;;;;;;;2.96;88.25;96284.97;4991168;28;20668;-75
2023/01/01 05:18:28;;;;;;;180.57;83.73;;;;;;;2.94;88.00;96279.91;4991076;28;20228;-75
2023/01/01 05:20:59;;;;;;;178.97;83.03;;;;;;;3.02;88.25;96305.28;4991109;28;20641;-75
2023/01/01 05:23:24;;;;;;;188.13;83.33;;;;;;;3.01;88.34;96301.88;4991035;28;20312;-75
2023/01/01 05:25:50;;;;;;;185.83;86.20;;;;;;;3.03;88.55;96301.72;4990943;28;20631;-75
2023/01/01 05:28:15;;;;;;;168.70;77.00;;;;;;;3.06;88.39;96295.44;4990997;28;20239;-75
2023/01/01 05:30:41;;;;;;;175.10;78.87;;;;;;;2.91;87.85;96269.78;4990809;28;20232;-74
2023/01/01 05:33:06;;;;;;;195.00;85.40;;;;;;;3.09;87.89;96295.19;4991105;28;20188;-74
2023/01/01 05:35:31;;;;;;;181.33;85.03;;;;;;;3.10;87.99;96307.25;4990173;28;20191;-74
2023/01/01 05:37:57;;;;;;;214.63;95.50;;;;;;;2.89;88.02;96279.47;4990961;28;20181;-74
2023/01/01 05:40:22;;;;;;;191.50;89.67;;;;;;;3.05;88.58;96297.22;4990649;28;20243;-74
2023/01/01 05:42:48;;;;;;;228.40;106.57;;;;;;;3.02;89.23;96305.28;4990775;28;20185;-74
2023/01/01 05:45:14;;;;;;;235.93;111.60;;;;;;;2.98;89.68;96304.72;4990682;28;20185;-74
2023/01/01 05:47:39;;;;;;;217.70;105.27;;;;;;;3.05;90.09;96305.00;4990646;28;20185;-74
2023/01/01 05:50:05;;;;;;;225.10;105.30;;;;;;;3.06;89.85;96300.63;4990580;28;20593;-74
2023/01/01 05:52:31;;;;;;;235.67;103.53;;;;;;;3.00;90.30;96295.00;4990711;28;20185;-74
2023/01/01 05:54:57;;;;;;;218.03;97.60;;;;;;;2.89;89.22;96278.66;4990675;28;20259;-74
2023/01/01 05:57:23;;;;;;;220.13;99.40;;;;;;;3.04;89.07;96309.41;4990280;28;20256;-74
2023/01/01 05:59:48;;;;;;;223.63;95.67;;;;;;;3.01;88.91;96314.88;4989998;28;20189;-74
2023/01/01 06:02:13;;;;;;;226.60;106.60;;;;;;;2.98;88.99;96307.31;4989595;28;20922;-74
2023/01/01 06:04:39;;;;;;;216.60;91.60;;;;;;;2.83;89.61;96279.16;4990467;28;20188;-74
2023/01/01 06:07:04;;;;;;;199.60;92.53;;;;;;;2.91;89.69;96306.19;4990543;28;20192;-74
2023/01/01 06:09:30;;;;;;;217.30;90.33;;;;;;;3.02;89.06;96313.09;4990640;28;20625;-74
2023/01/01 06:11:55;;;;;;;207.00;89.17;;;;;;;2.92;88.72;96288.81;4990410;28;20188;-74
2023/01/01 06:14:21;;;;;;;177.20;82.07;;;;;;;3.14;88.48;96314.66;4989995;28;20647;-75
2023/01/01 06:16:46;;;;;;;192.90;81.53;;;;;;;3.15;88.87;96318.91;4989949;28;20181;-75
2023/01/01 06:19:11;;;;;;;176.27;82.33;;;;;;;3.17;88.92;96318.78;4990139;28;20589;-76
2023/01/01 06:21:37;;;;;;;161.17;77.87;;;;;;;3.18;88.21;96313.44;4990396;28;20205;-76
2023/01/01 06:24:02;;;;;;;164.00;78.03;;;;;;;3.26;87.66;96316.22;4990288;28;20666;-75
2023/01/01 06:26:30;;;;;;;178.50;79.87;;;;;;;3.33;87.82;96319.97;4990208;28;20174;-75
2023/01/01 06:28:56;;;;;;;188.40;86.07;;;;;;;3.37;87.13;96318.72;4990207;28;20178;-75
2023/01/01 06:31:22;;;;;;;227.07;96.33;;;;;;;3.42;86.81;96324.38;4990415;28;20244;-75
2023/01/01 06:33:49;;;;;;;224.47;102.90;;;;;;;3.43;87.42;96320.00;4990408;28;20184;-75
2023/01/01 06:36:17;;;;;;;216.23;100.33;;;;;;;3.52;87.98;96326.22;4990080;28;20181;-75
2023/01/01 06:38:44;;;;;;;203.00;95.37;;;;;;;3.63;87.80;96323.50;4990078;28;20185;-75
2023/01/01 06:41:16;;;;;;;220.27;100.90;;;;;;;3.74;87.07;96333.81;4990315;28;20177;-75
2023/01/01 06:43:42;;;;;;;269.53;122.67;;;;;;;3.83;87.66;96340.81;4989972;28;20260;-75
2023/01/01 06:46:15;;;;;;;253.47;118.27;;;;;;;4.06;88.65;96331.88;4990050;28;20736;-76
2023/01/01 06:48:41;;;;;;;259.13;117.57;;;;;;;4.48;87.74;96335.06;4993150;28;20181;-75
2023/01/01 06:51:09;;;;;;;263.87;121.73;;;;;;;4.85;85.79;96343.00;5003052;28;20211;-75
2023/01/01 06:53:35;;;;;;;238.53;113.43;;;;;;;5.02;83.11;96340.63;5012890;28;20180;-75
2023/01/01 06:56:00;;;;;;;219.43;98.20;;;;;;;5.15;82.54;96351.63;5013424;28;20176;-75
2023/01/01 06:58:26;;;;;;;167.70;83.60;;;;;;;5.35;82.30;96350.63;5012912;28;20177;-75
2023/01/01 07:00:51;;;;;;;165.77;77.57;;;;;;;5.72;81.09;96353.22;5013009;28;20694;-75
2023/01/01 07:03:17;;;;;;;130.00;68.00;;;;;;;6.11;78.74;96351.31;5013113;28;20260;-75
2023/01/01 07:05:42;;;;;;;132.00;61.23;;;;;;;6.57;78.06;96360.78;5011861;28;20207;-75
2023/01/01 07:08:07;;;;;;;123.37;62.80;;;;;;;7.20;75.67;96368.50;5013226;28;20188;-75
2023/01/01 07:10:33;;;;;;;127.20;61.17;;;;;;;7.69;73.64;96364.44;5012768;28;20254;-75
2023/01/01 07:12:59;;;;;;;127.10;64.37;;;;;;;7.96;72.51;96364.22;5012666;28;20576;-75
2023/01/01 07:15:25;;;;;;;135.43;65.90;;;;;;;8.06;71.96;96350.16;5012369;28;20181;-75
2023/01/01 07:17:50;;;;;;;133.10;67.93;;;;;;;8.25;71.36;96363.84;5012411;28;20242;-75
2023/01/01 07:20:16;;;;;;;140.53;69.67;;;;;;;8.41;70.80;96355.22;5012832;28;20272;-74
2023/01/01 07:22:41;;;;;;;134.33;68.63;;;;;;;8.77;70.19;96353.16;5012673;28;20214;-74
2023/01/01 07:25:09;;;;;;;136.57;70.50;;;;;;;9.33;68.52;96360.25;5013106;28;20184;-74
2023/01/01 07:27:34;;;;;;;133.70;69.10;;;;;;;9.69;66.41;96355.41;5012799;28;20246;-74
2023/01/01 07:30:00;;;;;;;128.20;63.50;;;;;;;10.00;65.72;96360.75;5012747;28;20237;-74
2023/01/01 07:32:25;;;;;;;136.10;70.40;;;;;;;10.48;64.32;96348.38;5012424;28;20211;-74
2023/01/01 07:34:51;;;;;;;125.73;61.37;;;;;;;11.15;62.45;96352.06;5012666;28;20176;-75
2023/01/01 07:37:16;;;;;;;110.20;55.40;;;;;;;11.85;60.66;96370.22;5012608;28;20560;-74
2023/01/01 07:39:41;;;;;;;106.30;54.43;;;;;;;12.66;58.49;96365.78;5012515;28;20184;-74
2023/01/01 07:42:07;;;;;;;97.17;53.40;;;;;;;13.47;56.00;96365.41;5012616;28;20238;-75
2023/01/01 07:44:32;;;;;;;102.77;54.33;;;;;;;14.02;54.65;96370.84;5012289;28;20188;-74
2023/01/01 07:47:24;;;;;;;109.93;56.27;;;;;;;14.64;52.62;96366.31;5012227;28;20318;-75
2023/01/01 07:49:51;;;;;;;99.43;56.20;;;;;;;15.35;51.24;96368.50;5009431;28;20261;-75
2023/01/01 07:52:17;;;;;;;100.10;56.87;;;;;;;15.69;50.09;96365.69;5010915;28;20592;-74
2023/01/01 07:54:42;;;;;;;111.00;58.13;;;;;;;15.26;50.41;96365.22;5012177;28;20176;-74
2023/01/01 07:57:08;;;;;;;103.27;55.73;;;;;;;14.47;52.31;96354.41;5011933;28;20177;-74
2023/01/01 07:59:33;;;;;;;99.90;54.43;;;;;;;13.80;54.14;96362.16;5011337;28;20326;-75
2023/01/01 08:01:59;;;;;;;106.20;57.63;;;;;;;12.99;56.45;96352.91;5011784;28;20180;-75
2023/01/01 08:04:28;;;;;;;100.57;53.73;;;;;;;12.98;57.88;96370.59;5010863;28;20797;-75
2023/01/01 08:06:53;;;;;;;102.20;51.43;;;;;;;13.96;56.13;96364.50;5011783;28;20195;-74
2023/01/01 08:09:19;;;;;;;94.47;52.60;;;;;;;15.28;53.37;96357.91;5011887;28;20204;-75
2023/01/01 08:11:44;;;;;;;89.23;49.77;;;;;;;16.18;50.18;96377.66;5011825;28;20180;-76
2023/01/01 08:14:10;;;;;;;88.75;49.55;;;;;;;16.77;48.67;96361.56;5011620;28;20192;-75
2023/01/01 08:16:35;;;;;;;85.95;49.38;;;;;;;17.29;47.22;96375.59;5011882;28;20271;-75
2023/01/01 08:19:01;;;;;;;89.22;47.75;;;;;;;17.37;46.88;96385.97;5012024;28;20196;-74
2023/01/01 08:21:26;;;;;;;84.15;47.30;;;;;;;17.29;46.98;96388.91;5011922;28;20267;-75
2023/01/01 08:23:52;;;;;;;89.00;49.60;;;;;;;17.25;46.95;96383.19;5011524;28;20228;-75
2023/01/01 08:26:26;;;;;;;83.30;47.72;;;;;;;16.92;47.20;96370.06;5011694;28;20180;-73
2023/01/01 08:28:51;;;;;;;80.85;48.00;;;;;;;16.63;48.58;96386.56;5010376;28;20172;-74
2023/01/01 08:31:17;;;;;;;110.82;59.90;;;;;;;16.36;49.64;96385.78;5011680;28;20176;-73
2023/01/01 08:33:42;;;;;;;92.15;52.10;;;;;;;16.07;49.34;96383.63;4998879;28;20597;-74
2023/01/01 08:36:11;;;;;;;91.20;51.83;;;;;;;15.59;50.09;96381.19;4991991;28;20271;-75
2023/01/01 08:38:36;;;;;;;102.10;54.50;;;;;;;15.16;51.46;96382.56;4992137;28;20183;-74
2023/01/01 08:41:02;;;;;;;97.30;53.10;;;;;;;14.81;53.29;96382.66;4991571;28;20185;-74
2023/01/01 08:43:27;;;;;;;99.47;53.00;;;;;;;14.28;54.09;96358.56;4991353;28;20184;-74
2023/01/01 08:45:52;;;;;;;94.93;50.60;;;;;;;14.08;53.61;96354.22;4991519;28;20181;-74
2023/01/01 08:48:18;;;;;;;94.90;50.13;;;;;;;13.85;55.13;96372.97;4991511;28;20199;-74
2023/01/01 08:50:43;;;;;;;92.17;50.73;;;;;;;13.83;55.82;96372.38;4991509;28;20271;-74
2023/01/01 08:53:09;;;;;;;89.77;48.60;;;;;;;13.91;55.76;96373.06;4991382;28;20177;-75
2023/01/01 08:55:34;;;;;;;95.77;50.80;;;;;;;13.84;55.25;96376.63;4991425;28;20652;-74
2023/01/01 08:57:59;;;;;;;89.17;48.73;;;;;;;13.72;55.73;96368.44;4991001;28;20204;-75
2023/01/01 09:00:25;;;;;;;92.37;47.07;;;;;;;13.56;56.28;96376.66;4991304;28;20667;-75
2023/01/01 09:02:50;;;;;;;90.57;48.83;;;;;;;13.49;56.54;96370.50;4991204;28;20220;-74
2023/01/01 09:05:16;;;;;;;89.47;46.93;;;;;;;13.40;56.68;96363.72;4991396;28;20176;-75
2023/01/01 09:07:41;;;;;;;85.37;47.57;;;;;;;13.36;57.13;96365.09;4989788;28;20234;-74
2023/01/01 09:10:07;;;;;;;73.87;42.73;;;;;;;13.43;57.74;96363.31;4995278;28;20983;-74
2023/01/01 09:12:32;;;;;;;88.10;44.47;;;;;;;13.48;56.59;96355.63;4995972;28;20188;-74
2023/01/01 09:14:59;;;;;;;75.20;41.80;;;;;;;13.39;56.95;96344.38;4999175;28;20165;-75
2023/01/01 09:17:24;;;;;;;69.97;40.23;;;;;;;13.37;57.40;96350.84;4982679;28;20173;-75
2023/01/01 09:19:49;;;;;;;78.97;40.87;;;;;;;13.32;58.32;96337.41;4991372;28;20284;-74
2023/01/01 09:22:15;;;;;;;76.03;40.27;;;;;;;13.23;58.63;96335.91;4991477;28;20189;-74
2023/01/01 09:24:40;;;;;;;76.30;40.30;;;;;;;13.01;58.12;96320.00;4991466;28;20304;-74
2023/01/01 09:27:06;;;;;;;80.27;39.97;;;;;;;12.90;58.15;96312.56;4991438;28;20212;-75
2023/01/01 09:29:31;;;;;;;74.70;39.23;;;;;;;12.75;58.94;96312.63;4991243;28;20213;-75
2023/01/01 09:31:56;;;;;;;71.90;39.03;;;;;;;12.56;59.49;96323.81;4990956;28;20188;-75
2023/01/01 09:34:23;;;;;;;72.93;38.33;;;;;;;12.49;60.26;96322.91;4989674;28;20180;-74
2023/01/01 09:36:48;;;;;;;77.87;39.93;;;;;;;12.55;61.25;96323.97;4990780;28;20577;-75
2023/01/01 09:39:15;;;;;;;77.90;40.40;;;;;;;12.68;60.56;96314.41;4989442;28;20185;-75
2023/01/01 09:41:54;;;;;;;72.57;37.50;;;;;;;12.65;59.88;96321.88;4990847;28;20543;-75
2023/01/01 09:44:54;;;;;;;71.53;39.97;;;;;;;12.60;59.73;96319.78;4990419;28;20188;-75
2023/01/01 09:47:33;;;;;;;88.30;42.10;;;;;;;12.52;60.38;96311.16;4968895;28;20197;-75
2023/01/01 09:50:19;;;;;;;79.70;41.23;;;;;;;12.57;60.57;96317.53;4988022;28;20223;-75
2023/01/01 09:52:53;;;;;;;75.43;40.80;;;;;;;12.66;59.92;96321.69;4990560;28;20179;-75
2023/01/01 09:55:27;;;;;;;87.57;43.43;;;;;;;12.72;59.68;96307.72;4991016;28;20181;-75
2023/01/01 09:57:54;;;;;;;77.57;39.97;;;;;;;12.63;60.13;96303.56;4991072;28;20184;-74
2023/01/01 10:00:23;;;;;;;76.73;42.43;;;;;;;12.59;59.56;96302.31;4990707;28;20177;-74
2023/01/01 10:03:11;;;;;;;69.80;40.87;;;;;;;12.58;59.96;96299.84;5005838;28;20258;-74
2023/01/01 10:05:46;;;;;;;69.17;38.30;;;;;;;12.54;60.17;96301.25;5010563;28;20671;-74
2023/01/01 10:08:43;;;;;;;66.37;35.50;;;;;;;12.47;60.28;96298.50;4998943;28;20238;-74
2023/01/01 10:11:17;;;;;;;71.03;36.33;;;;;;;12.40;60.43;96297.63;4985894;28;20591;-74
2023/01/01 10:13:45;;;;;;;65.03;34.70;;;;;;;12.16;61.01;96295.31;4995499;28;20183;-74
2023/01/01 10:16:35;;;;;;;67.17;34.50;;;;;;;11.98;61.02;96296.50;4993937;28;20197;-74
2023/01/01 10:19:18;;;;;;;62.23;34.07;;;;;;;11.59;61.59;96249.28;4990743;28;20200;-75
2023/01/01 10:21:45;;;;;;;66.47;33.60;;;;;;;11.79;62.65;96283.06;4990359;28;20191;-75
2023/01/01 10:24:18;;;;;;;58.70;33.30;;;;;;;11.86;61.81;96287.41;4988342;28;20224;-75
2023/01/01 10:26:44;;;;;;;62.03;32.30;;;;;;;11.75;62.00;96260.69;4992603;28;20272;-75
2023/01/01 10:29:21;;;;;;;60.07;31.73;;;;;;;11.97;62.87;96280.84;4993901;28;20184;-75
2023/01/01 10:31:47;;;;;;;69.53;34.27;;;;;;;11.94;62.53;96260.09;4989146;28;20176;-75
2023/01/01 10:34:18;;;;;;;65.17;34.27;;;;;;;12.04;62.12;96276.47;4995848;28;20185;-75
2023/01/01 10:36:44;;;;;;;62.67;34.33;;;;;;;12.12;62.51;96276.38;4992177;28;20244;-75
2023/01/01 10:39:17;;;;;;;65.37;35.87;;;;;;;12.13;61.23;96266.63;4990123;28;20241;-75
2023/01/01 10:41:46;;;;;;;67.43;37.47;;;;;;;12.00;62.21;96265.47;4989464;28;20178;-75
2023/01/01 10:44:15;;;;;;;83.47;40.10;;;;;;;11.60;63.12;96264.09;4988948;28;20189;-75
2023/01/01 10:46:46;;;;;;;70.97;37.57;;;;;;;11.22;64.09;96258.09;4986471;28;20649;-75
2023/01/01 10:49:13;;;;;;;68.53;37.67;;;;;;;11.11;65.04;96255.06;4985532;28;20184;-75
2023/01/01 10:51:44;;;;;;;76.80;39.13;;;;;;;11.04;65.10;96243.63;4985987;28;20198;-75
2023/01/01 10:54:39;;;;;;;77.30;39.37;;;;;;;11.14;64.99;96252.09;4985760;28;20240;-75
2023/01/01 10:57:19;;;;;;;78.57;41.17;;;;;;;11.13;65.25;96243.34;4993196;28;20177;-74
2023/01/01 10:59:44;;;;;;;76.50;39.70;;;;;;;11.15;65.57;96241.38;4994106;28;20579;-74
2023/01/01 11:02:22;;;;;;;82.00;41.70;;;;;;;11.26;65.71;96232.19;4993967;28;20327;-75
2023/01/01 11:04:49;;;;;;;77.23;40.00;;;;;;;11.41;65.53;96227.75;4994173;28;20688;-75
2023/01/01 11:07:20;;;;;;;132.27;69.80;;;;;;;11.48;65.37;96226.03;5005418;28;20183;-75
2023/01/01 11:09:49;;;;;;;96.50;49.63;;;;;;;11.51;64.90;96209.81;5013747;28;20691;-75
2023/01/01 11:12:29;;;;;;;85.97;43.47;;;;;;;11.63;64.48;96223.38;5013526;28;20271;-75
2023/01/01 11:14:56;;;;;;;79.63;43.07;;;;;;;11.59;64.29;96204.44;5013224;28;20172;-75
2023/01/01 11:17:30;;;;;;;89.23;45.33;;;;;;;11.71;64.33;96216.16;5013280;28;20176;-75
2023/01/01 11:20:00;;;;;;;88.33;44.83;;;;;;;11.74;64.81;96209.72;5013447;28;20164;-75
2023/01/01 11:22:50;;;;;;;85.23;45.07;;;;;;;11.77;64.84;96216.44;5013706;28;20271;-75
2023/01/01 11:25:25;;;;;;;89.93;45.23;;;;;;;11.85;63.71;96208.47;5013330;28;20219;-75